Time;durP1;ratioP1;P1;durP2;ratioP2;P2;SDS_P1;SDS_P2;PMS_P1;PMS_P2;Temp;Humidity;BMP_temperature;BMP_pressure;BME280_temperature;BME280_humidity;BME280_pressure;Samples;Min_cycle;Max_cycle;Signal;HPM_P1;HPM_P2
2021/12/21 00:02:12;;;;;;;0.00;0.00;;;-2.60;99.90;;;;;;4991416;28;20026;-64
2021/12/21 00:04:37;;;;;;;0.00;0.00;;;-2.60;99.90;;;;;;4993131;28;20033;-64
2021/12/21 00:07:05;;;;;;;0.00;0.00;;;-2.60;99.90;;;;;;4996109;28;20038;-64
2021/12/21 00:09:30;;;;;;;0.00;0.00;;;-2.60;99.90;;;;;;4992502;28;20520;-64
2021/12/21 00:11:58;;;;;;;0.00;0.00;;;-2.70;99.90;;;;;;4993880;28;20022;-64
2021/12/21 00:14:35;;;;;;;0.00;0.00;;;-2.70;99.90;;;;;;4992604;28;20030;-64
2021/12/21 00:19:53;;;;;;;0.00;0.00;;;-2.90;99.90;;;;;;4997778;28;20069;-65
2021/12/21 00:25:03;;;;;;;0.00;0.00;;;-2.70;99.90;;;;;;5001234;28;20097;-65
2021/12/21 00:27:29;;;;;;;0.00;0.00;;;-2.70;99.90;;;;;;4992117;28;20057;-65
2021/12/21 00:29:54;;;;;;;0.00;0.00;;;-2.60;99.90;;;;;;4994864;28;20057;-65
2021/12/21 00:32:20;;;;;;;0.00;0.00;;;-2.70;99.90;;;;;;4991428;28;20028;-65
2021/12/21 00:34:45;;;;;;;0.00;0.00;;;-2.70;99.90;;;;;;4998416;28;20450;-65
2021/12/21 00:37:11;;;;;;;0.00;0.00;;;-2.70;99.90;;;;;;4992143;28;20084;-65
2021/12/21 00:39:36;;;;;;;0.00;0.00;;;-2.70;99.90;;;;;;4994503;28;20022;-65
2021/12/21 00:42:03;;;;;;;0.00;0.00;;;-2.70;99.90;;;;;;4991926;28;20046;-65
2021/12/21 00:44:28;;;;;;;0.00;0.00;;;-2.60;99.90;;;;;;4992099;28;20022;-65
2021/12/21 00:46:54;;;;;;;0.00;0.00;;;-2.70;99.90;;;;;;4993264;28;20029;-65
2021/12/21 00:49:21;;;;;;;0.00;0.00;;;-2.70;99.90;;;;;;5001331;28;20026;-65
2021/12/21 00:51:47;;;;;;;0.00;0.00;;;-2.80;99.90;;;;;;4992364;28;20488;-65
2021/12/21 00:54:15;;;;;;;0.00;0.00;;;-2.90;99.90;;;;;;4992451;28;20113;-65
2021/12/21 00:56:40;;;;;;;0.00;0.00;;;-2.90;99.90;;;;;;4992725;28;20049;-64
2021/12/21 00:59:06;;;;;;;0.00;0.00;;;-2.80;99.90;;;;;;4990891;28;20019;-64
2021/12/21 01:01:35;;;;;;;0.00;0.00;;;-2.80;99.90;;;;;;4992173;28;20042;-64
2021/12/21 01:04:03;;;;;;;0.00;0.00;;;-2.80;99.90;;;;;;4997308;28;20088;-64
2021/12/21 01:09:26;;;;;;;0.00;0.00;;;-2.70;99.90;;;;;;4997037;28;20023;-64
2021/12/21 01:11:56;;;;;;;0.00;0.00;;;-2.80;99.90;;;;;;4995010;28;20084;-65
2021/12/21 01:14:54;;;;;;;0.00;0.00;;;-2.90;99.90;;;;;;4997459;28;20023;-65
2021/12/21 01:17:22;;;;;;;0.00;0.00;;;-2.90;99.90;;;;;;4995509;28;20026;-65
2021/12/21 01:19:59;;;;;;;0.00;0.00;;;-3.10;99.90;;;;;;4997493;28;20073;-65
2021/12/21 01:22:45;;;;;;;0.00;0.00;;;-3.00;99.90;;;;;;4994889;28;20038;-65
2021/12/21 01:28:06;;;;;;;0.00;0.00;;;-2.90;99.90;;;;;;4995551;28;20033;-65
2021/12/21 01:39:03;;;;;;;0.00;0.00;;;-3.10;99.90;;;;;;4995383;28;20022;-65
2021/12/21 01:41:39;;;;;;;0.00;0.00;;;-3.10;99.90;;;;;;4995512;28;20034;-65
2021/12/21 01:52:10;;;;;;;0.00;0.00;;;-3.20;99.90;;;;;;4994887;28;20030;-65
2021/12/21 01:54:35;;;;;;;0.00;0.00;;;-3.10;99.90;;;;;;5000286;28;20029;-65
2021/12/21 01:57:02;;;;;;;0.00;0.00;;;-3.10;99.90;;;;;;4995645;28;20389;-65
2021/12/21 01:59:27;;;;;;;0.00;0.00;;;-3.10;99.90;;;;;;4995878;28;20025;-65
2021/12/21 02:01:53;;;;;;;0.00;0.00;;;-3.20;99.90;;;;;;4994380;28;20030;-64
2021/12/21 02:04:19;;;;;;;0.00;0.00;;;-3.20;99.90;;;;;;5001774;28;20074;-64
2021/12/21 02:06:44;;;;;;;0.00;0.00;;;-3.20;99.90;;;;;;4997836;28;20370;-64
2021/12/21 02:09:10;;;;;;;0.00;0.00;;;-3.20;99.90;;;;;;4993216;28;20109;-65
2021/12/21 02:11:36;;;;;;;0.00;0.00;;;-3.20;99.90;;;;;;4995434;28;20029;-64
2021/12/21 02:14:05;;;;;;;0.00;0.00;;;-3.20;99.90;;;;;;4994270;28;20488;-64
2021/12/21 02:16:43;;;;;;;0.00;0.00;;;-3.20;99.90;;;;;;4995244;28;20347;-64
2021/12/21 02:19:20;;;;;;;0.00;0.00;;;-3.10;99.90;;;;;;4994836;28;20088;-65
2021/12/21 02:21:50;;;;;;;0.00;0.00;;;-3.30;99.90;;;;;;4995032;28;20026;-65
2021/12/21 02:24:21;;;;;;;0.00;0.00;;;-3.40;99.90;;;;;;4994766;28;20030;-65
2021/12/21 02:29:35;;;;;;;0.00;0.00;;;-3.50;99.90;;;;;;5002767;28;20034;-65
2021/12/21 02:32:01;;;;;;;0.00;0.00;;;-3.40;99.90;;;;;;5000330;28;20421;-65
2021/12/21 02:34:27;;;;;;;0.00;0.00;;;-3.30;99.90;;;;;;4995449;28;20037;-65
2021/12/21 02:36:55;;;;;;;0.00;0.00;;;-3.30;99.90;;;;;;4994230;28;20026;-65
2021/12/21 02:39:23;;;;;;;0.00;0.00;;;-3.40;99.90;;;;;;4994985;28;20030;-65
2021/12/21 02:41:48;;;;;;;0.00;0.00;;;-3.30;99.90;;;;;;4994316;28;20045;-64
2021/12/21 02:44:15;;;;;;;0.00;0.00;;;-3.40;99.90;;;;;;4994762;28;20485;-65
2021/12/21 02:46:41;;;;;;;0.00;0.00;;;-3.30;99.90;;;;;;4999031;28;20029;-65
2021/12/21 02:49:08;;;;;;;0.00;0.00;;;-3.20;99.90;;;;;;4993687;28;20117;-65
2021/12/21 02:51:37;;;;;;;0.00;0.00;;;-3.20;99.90;;;;;;4993607;28;20022;-65
2021/12/21 02:54:02;;;;;;;0.00;0.00;;;-3.20;99.90;;;;;;4990178;28;20166;-65
2021/12/21 02:56:28;;;;;;;0.00;0.00;;;-3.20;99.90;;;;;;4991916;28;20062;-65
2021/12/21 02:58:53;;;;;;;0.00;0.00;;;-3.30;99.90;;;;;;4994103;28;20026;-65
2021/12/21 03:01:19;;;;;;;0.00;0.00;;;-3.40;99.90;;;;;;5002718;28;20446;-65
2021/12/21 03:03:45;;;;;;;0.00;0.00;;;-3.40;99.90;;;;;;4990692;28;20030;-65
2021/12/21 03:06:26;;;;;;;0.00;0.00;;;-3.50;99.90;;;;;;4989615;28;20022;-65
2021/12/21 03:08:56;;;;;;;0.00;0.00;;;-3.70;99.90;;;;;;4991401;28;20033;-64
2021/12/21 03:11:36;;;;;;;0.00;0.00;;;-3.70;99.90;;;;;;4991744;28;20034;-65
2021/12/21 03:14:05;;;;;;;0.00;0.00;;;-3.60;99.90;;;;;;4988245;28;20037;-65
2021/12/21 03:16:35;;;;;;;0.00;0.00;;;-3.50;99.90;;;;;;4990131;28;20042;-65
2021/12/21 03:19:03;;;;;;;0.00;0.00;;;-3.60;99.90;;;;;;4992943;28;20026;-65
2021/12/21 03:21:28;;;;;;;0.00;0.00;;;-3.60;99.90;;;;;;4988818;28;20381;-65
2021/12/21 03:23:55;;;;;;;0.00;0.00;;;-3.50;99.90;;;;;;4992975;28;20031;-65
2021/12/21 03:26:21;;;;;;;0.00;0.00;;;-3.50;99.90;;;;;;4992524;28;20026;-65
2021/12/21 03:28:46;;;;;;;0.00;0.00;;;-3.40;99.90;;;;;;4993620;28;20390;-65
2021/12/21 03:31:12;;;;;;;0.00;0.00;;;-3.40;99.90;;;;;;4996082;28;20022;-65
2021/12/21 03:33:37;;;;;;;0.00;0.00;;;-3.40;99.90;;;;;;4993919;28;20445;-65
2021/12/21 03:36:04;;;;;;;0.00;0.00;;;-3.40;99.90;;;;;;5000111;28;20030;-65
2021/12/21 03:38:31;;;;;;;0.00;0.00;;;-3.40;99.90;;;;;;4993594;28;20416;-65
2021/12/21 03:41:03;;;;;;;0.00;0.00;;;-3.40;99.90;;;;;;4992310;28;20032;-65
2021/12/21 03:43:30;;;;;;;0.00;0.00;;;-3.40;99.90;;;;;;4994092;28;20164;-65
2021/12/21 03:46:06;;;;;;;0.00;0.00;;;-3.40;99.90;;;;;;4994854;28;20072;-65
2021/12/21 03:48:31;;;;;;;0.00;0.00;;;-3.50;99.90;;;;;;4993341;28;20066;-65
2021/12/21 03:50:57;;;;;;;0.00;0.00;;;-3.50;99.90;;;;;;4993510;28;20030;-65
2021/12/21 03:53:22;;;;;;;0.00;0.00;;;-3.50;99.90;;;;;;4992824;28;20022;-65
2021/12/21 03:55:57;;;;;;;0.00;0.00;;;-3.50;99.90;;;;;;4993084;28;20385;-65
2021/12/21 03:58:23;;;;;;;0.00;0.00;;;-3.50;99.90;;;;;;4986728;28;20053;-65
2021/12/21 04:00:49;;;;;;;0.00;0.00;;;-3.40;99.90;;;;;;4992417;28;20082;-65
2021/12/21 04:03:14;;;;;;;0.00;0.00;;;-3.40;99.90;;;;;;5000515;28;20041;-64
2021/12/21 04:05:40;;;;;;;0.00;0.00;;;-3.40;99.90;;;;;;4992675;28;20030;-65
2021/12/21 04:08:05;;;;;;;0.00;0.00;;;-3.30;99.90;;;;;;4994533;28;20034;-65
2021/12/21 04:10:31;;;;;;;0.00;0.00;;;-3.30;99.90;;;;;;4994276;28;20029;-65
2021/12/21 04:12:56;;;;;;;0.00;0.00;;;-3.40;99.90;;;;;;4991398;28;20105;-65
2021/12/21 04:15:24;;;;;;;0.00;0.00;;;-3.50;99.90;;;;;;4993390;28;20177;-65
2021/12/21 04:17:50;;;;;;;0.00;0.00;;;-3.40;99.90;;;;;;4993248;28;20108;-65
2021/12/21 04:20:15;;;;;;;0.00;0.00;;;-3.20;99.90;;;;;;4995076;28;20109;-65
2021/12/21 04:22:41;;;;;;;0.00;0.00;;;-3.20;99.90;;;;;;4992973;28;20026;-65
2021/12/21 04:25:07;;;;;;;0.00;0.00;;;-3.10;99.90;;;;;;4995880;28;20026;-65
2021/12/21 04:27:33;;;;;;;0.00;0.00;;;-3.00;99.90;;;;;;5023431;28;20068;-65
2021/12/21 04:29:58;;;;;;;0.00;0.00;;;-2.90;99.90;;;;;;4993181;28;20034;-65
2021/12/21 04:32:24;;;;;;;0.00;0.00;;;-2.90;99.90;;;;;;4991549;28;20030;-65
2021/12/21 04:34:49;;;;;;;0.00;0.00;;;-2.70;99.90;;;;;;4994889;28;20385;-65
2021/12/21 04:37:16;;;;;;;0.00;0.00;;;-2.60;99.90;;;;;;4996718;28;20539;-65
2021/12/21 04:39:52;;;;;;;0.00;0.00;;;-2.60;99.90;;;;;;5001022;28;20022;-65
2021/12/21 04:42:18;;;;;;;0.00;0.00;;;-2.60;99.90;;;;;;4991512;28;20207;-65
2021/12/21 04:44:44;;;;;;;0.00;0.00;;;-2.50;99.90;;;;;;4999084;28;20113;-65
2021/12/21 04:47:09;;;;;;;0.00;0.00;;;-2.50;99.90;;;;;;4994952;28;20165;-65
2021/12/21 04:49:35;;;;;;;0.08;0.08;;;-2.40;99.90;;;;;;4992462;28;20134;-65
2021/12/21 04:52:00;;;;;;;0.00;0.00;;;-2.40;99.90;;;;;;4992334;28;20100;-65
2021/12/21 04:54:26;;;;;;;0.10;0.10;;;-2.40;99.90;;;;;;4992668;28;20050;-65
2021/12/21 04:56:52;;;;;;;0.13;0.05;;;-2.30;99.90;;;;;;4991703;28;20041;-65
2021/12/21 04:59:17;;;;;;;0.20;0.10;;;-2.30;99.90;;;;;;4995807;28;20045;-65
2021/12/21 05:01:43;;;;;;;0.10;0.03;;;-2.20;99.90;;;;;;4991778;28;20433;-65
2021/12/21 05:04:08;;;;;;;0.10;0.10;;;-2.20;99.90;;;;;;4992401;28;20030;-65
2021/12/21 05:06:34;;;;;;;0.13;0.10;;;-2.10;99.90;;;;;;4993641;28;20026;-65
2021/12/21 05:09:09;;;;;;;0.22;0.20;;;-2.10;99.90;;;;;;4993126;28;20372;-65
2021/12/21 05:11:36;;;;;;;0.30;0.22;;;-2.10;99.90;;;;;;4991423;28;20026;-65
2021/12/21 05:14:02;;;;;;;0.28;0.20;;;-2.00;99.90;;;;;;4992190;28;20036;-65
2021/12/21 05:16:27;;;;;;;0.30;0.30;;;-2.00;99.90;;;;;;4993593;28;20496;-65
2021/12/21 05:18:53;;;;;;;0.10;0.10;;;-1.90;99.90;;;;;;4991936;28;20022;-65
2021/12/21 05:21:18;;;;;;;0.17;0.17;;;-1.90;99.90;;;;;;4991643;28;20413;-65
2021/12/21 05:23:44;;;;;;;0.20;0.10;;;-1.90;99.90;;;;;;4991459;28;20397;-65
2021/12/21 05:26:09;;;;;;;0.00;0.00;;;-1.80;99.90;;;;;;4992008;28;20081;-65
2021/12/21 05:28:35;;;;;;;0.28;0.10;;;-1.80;99.90;;;;;;4992505;28;20029;-65
2021/12/21 05:31:00;;;;;;;0.00;0.00;;;-1.80;99.90;;;;;;4991261;28;20446;-65
2021/12/21 05:33:28;;;;;;;0.13;0.13;;;-1.80;99.90;;;;;;4991822;28;20072;-65
2021/12/21 05:35:54;;;;;;;0.10;0.10;;;-1.80;99.90;;;;;;4991857;28;20022;-65
2021/12/21 05:38:28;;;;;;;0.10;0.03;;;-1.90;99.90;;;;;;4992405;28;20050;-65
2021/12/21 05:40:54;;;;;;;0.00;0.00;;;-1.80;99.90;;;;;;4992173;28;20042;-65
2021/12/21 05:43:21;;;;;;;0.50;0.30;;;-1.90;99.90;;;;;;4991653;28;20037;-65
2021/12/21 05:45:46;;;;;;;0.10;0.10;;;-1.90;99.90;;;;;;4992866;28;20113;-65
2021/12/21 05:48:12;;;;;;;0.10;0.10;;;-1.90;99.90;;;;;;5001293;28;20445;-65
2021/12/21 05:50:38;;;;;;;0.20;0.20;;;-1.90;99.90;;;;;;4997954;28;20026;-65
2021/12/21 05:53:04;;;;;;;0.20;0.20;;;-1.90;99.90;;;;;;4994798;28;20053;-65
2021/12/21 05:55:29;;;;;;;0.17;0.13;;;-1.90;99.90;;;;;;4993424;28;20029;-65
2021/12/21 05:57:55;;;;;;;0.40;0.40;;;-1.90;99.90;;;;;;4994377;28;20444;-65
2021/12/21 06:00:25;;;;;;;0.50;0.50;;;-1.90;99.90;;;;;;4998019;28;20597;-65
2021/12/21 06:02:51;;;;;;;0.98;0.65;;;-1.90;99.90;;;;;;4994938;28;20019;-66
2021/12/21 06:05:17;;;;;;;0.30;0.30;;;-1.90;99.90;;;;;;4994701;28;20030;-65
2021/12/21 06:07:42;;;;;;;0.20;0.20;;;-1.90;99.90;;;;;;5003701;28;20034;-66
2021/12/21 06:10:13;;;;;;;0.45;0.35;;;-1.90;99.90;;;;;;4995368;28;20560;-66
2021/12/21 06:15:32;;;;;;;0.20;0.20;;;-1.90;99.90;;;;;;4996289;28;20041;-65
2021/12/21 06:26:04;;;;;;;0.60;0.40;;;-1.70;99.90;;;;;;4994731;28;20026;-65
2021/12/21 06:28:31;;;;;;;1.52;1.00;;;-1.80;99.90;;;;;;4994342;28;20105;-65
2021/12/21 06:30:56;;;;;;;0.40;0.40;;;-1.90;99.90;;;;;;4994059;28;20069;-65
2021/12/21 06:33:22;;;;;;;0.90;0.63;;;-1.90;99.90;;;;;;4994647;28;20054;-65
2021/12/21 06:35:48;;;;;;;1.42;0.75;;;-1.90;99.90;;;;;;4994317;28;20048;-66
2021/12/21 06:38:14;;;;;;;1.33;1.00;;;-1.90;99.90;;;;;;4993731;28;20018;-65
2021/12/21 06:40:40;;;;;;;0.28;0.28;;;-1.90;99.90;;;;;;4993772;28;20402;-66
2021/12/21 06:43:11;;;;;;;0.60;0.50;;;-1.90;99.90;;;;;;4992515;28;20038;-65
2021/12/21 06:53:35;;;;;;;0.15;0.10;;;-1.90;99.90;;;;;;4993845;28;20041;-65
2021/12/21 06:56:05;;;;;;;0.63;0.45;;;-1.90;99.90;;;;;;4992813;28;20030;-65
2021/12/21 06:58:31;;;;;;;0.80;0.47;;;-1.90;99.90;;;;;;4994828;28;20034;-65
2021/12/21 07:00:57;;;;;;;0.35;0.32;;;-2.00;99.90;;;;;;4983976;28;20022;-65
2021/12/21 07:03:23;;;;;;;0.75;0.45;;;-2.00;99.90;;;;;;4994187;28;20049;-65
2021/12/21 07:05:50;;;;;;;0.80;0.57;;;-2.10;99.90;;;;;;4984104;28;20438;-65
2021/12/21 07:08:20;;;;;;;0.30;0.30;;;-2.10;99.90;;;;;;4986320;28;20027;-65
2021/12/21 07:10:54;;;;;;;0.30;0.20;;;-2.20;99.90;;;;;;4993865;28;20018;-65
2021/12/21 07:18:50;;;;;;;0.20;0.20;;;-2.10;99.90;;;;;;4993086;28;20026;-65
2021/12/21 07:21:15;;;;;;;0.40;0.35;;;-2.10;99.90;;;;;;4983358;28;20386;-65
2021/12/21 07:23:41;;;;;;;0.10;0.10;;;-2.10;99.90;;;;;;4994225;28;20026;-65
2021/12/21 07:26:07;;;;;;;0.10;0.10;;;-2.00;99.90;;;;;;4993797;28;20056;-65
2021/12/21 07:28:32;;;;;;;0.20;0.17;;;-2.00;99.90;;;;;;4994019;28;20433;-65
2021/12/21 07:30:58;;;;;;;0.20;0.20;;;-2.00;99.90;;;;;;4991378;28;20483;-65
2021/12/21 07:33:24;;;;;;;0.30;0.30;;;-2.00;99.90;;;;;;4987800;28;20030;-65
2021/12/21 07:35:49;;;;;;;0.60;0.40;;;-2.10;99.90;;;;;;4989778;28;20060;-65
2021/12/21 07:38:15;;;;;;;0.35;0.30;;;-2.10;99.90;;;;;;4993292;28;20053;-65
2021/12/21 07:40:41;;;;;;;0.17;0.10;;;-2.10;99.90;;;;;;4993023;28;20141;-65
2021/12/21 07:43:06;;;;;;;0.03;0.03;;;-2.10;99.90;;;;;;4988771;28;20513;-65
2021/12/21 07:45:32;;;;;;;0.15;0.15;;;-2.10;99.90;;;;;;4987282;28;20118;-65
2021/12/21 07:47:58;;;;;;;0.20;0.17;;;-2.10;99.90;;;;;;4990064;28;20034;-65
2021/12/21 07:50:24;;;;;;;0.30;0.22;;;-2.10;99.90;;;;;;4986738;28;20028;-65
2021/12/21 07:52:54;;;;;;;0.50;0.30;;;-2.10;99.90;;;;;;4992475;28;20538;-66
2021/12/21 07:55:20;;;;;;;0.30;0.30;;;-2.10;99.90;;;;;;4992649;28;20034;-65
2021/12/21 07:57:46;;;;;;;0.50;0.30;;;-2.10;99.90;;;;;;4992232;28;20109;-65
2021/12/21 08:00:13;;;;;;;0.40;0.30;;;-2.10;99.90;;;;;;4988873;28;20031;-66
2021/12/21 08:02:40;;;;;;;0.20;0.20;;;-2.00;99.90;;;;;;4993233;28;20036;-65
2021/12/21 08:05:08;;;;;;;0.28;0.20;;;-2.10;99.90;;;;;;4992640;28;20038;-65
2021/12/21 08:07:39;;;;;;;0.28;0.20;;;-2.10;99.90;;;;;;4991821;28;20116;-65
2021/12/21 08:10:18;;;;;;;0.50;0.50;;;-2.00;99.90;;;;;;4992752;28;20135;-66
2021/12/21 08:12:45;;;;;;;0.32;0.20;;;-2.10;99.90;;;;;;4985378;28;20048;-65
2021/12/21 08:15:10;;;;;;;0.20;0.20;;;-2.00;99.90;;;;;;4999313;28;20458;-65
2021/12/21 08:17:36;;;;;;;0.15;0.10;;;-2.00;99.90;;;;;;4989744;28;20030;-65
2021/12/21 08:20:01;;;;;;;0.38;0.38;;;-1.90;99.90;;;;;;4990856;28;20041;-65
2021/12/21 08:22:27;;;;;;;0.35;0.25;;;-1.90;99.90;;;;;;4987413;28;20022;-66
2021/12/21 08:24:52;;;;;;;0.40;0.25;;;-1.90;99.90;;;;;;4992406;28;20022;-66
2021/12/21 08:27:18;;;;;;;0.35;0.20;;;-1.90;99.90;;;;;;4991568;28;20022;-66
2021/12/21 08:29:43;;;;;;;0.40;0.30;;;-1.90;99.90;;;;;;4991972;28;20014;-66
2021/12/21 08:32:09;;;;;;;0.25;0.22;;;-1.90;99.90;;;;;;4986074;28;20022;-66
2021/12/21 08:34:35;;;;;;;0.17;0.17;;;-1.80;99.90;;;;;;4990991;28;20026;-65
2021/12/21 08:37:01;;;;;;;0.40;0.35;;;-1.80;99.90;;;;;;4991943;28;20037;-65
2021/12/21 08:39:27;;;;;;;0.30;0.30;;;-2.00;99.90;;;;;;4991703;28;20109;-65
2021/12/21 08:41:58;;;;;;;0.30;0.28;;;-2.00;99.90;;;;;;4981243;28;20106;-65
2021/12/21 08:44:27;;;;;;;0.32;0.30;;;-2.00;99.90;;;;;;4991231;28;20034;-66
2021/12/21 08:46:57;;;;;;;0.20;0.10;;;-2.10;99.90;;;;;;4990652;28;20030;-66
2021/12/21 08:49:22;;;;;;;0.60;0.35;;;-2.10;99.90;;;;;;4982843;28;20068;-67
2021/12/21 08:51:48;;;;;;;0.30;0.20;;;-2.10;99.90;;;;;;4991798;28;20026;-66
2021/12/21 08:54:14;;;;;;;0.77;0.57;;;-2.00;99.90;;;;;;4983454;28;20050;-65
2021/12/21 08:56:39;;;;;;;0.17;0.17;;;-2.00;99.90;;;;;;4991791;28;20022;-65
2021/12/21 08:59:05;;;;;;;0.28;0.10;;;-2.00;99.90;;;;;;4992887;28;20105;-65
2021/12/21 09:01:31;;;;;;;0.20;0.10;;;-2.00;99.90;;;;;;4990918;28;20552;-65
2021/12/21 09:03:57;;;;;;;0.10;0.05;;;-1.90;99.90;;;;;;4991786;28;20088;-65
2021/12/21 09:06:24;;;;;;;0.52;0.30;;;-1.70;99.90;;;;;;4992906;28;20114;-66
2021/12/21 09:08:49;;;;;;;0.13;0.10;;;-1.70;99.90;;;;;;4992470;28;20029;-66
2021/12/21 09:11:15;;;;;;;0.10;0.10;;;-1.70;99.90;;;;;;4990398;28;20019;-66
2021/12/21 09:13:41;;;;;;;0.20;0.20;;;-1.60;99.90;;;;;;4992607;28;20026;-66
2021/12/21 09:16:06;;;;;;;0.17;0.17;;;-1.60;99.90;;;;;;4986463;28;20053;-65
2021/12/21 09:18:32;;;;;;;0.35;0.20;;;-1.70;99.90;;;;;;4992496;28;20450;-66
2021/12/21 09:20:57;;;;;;;0.20;0.20;;;-1.80;99.90;;;;;;4985291;28;20502;-65
2021/12/21 09:23:24;;;;;;;0.30;0.25;;;-1.90;99.90;;;;;;4993875;28;20080;-65
2021/12/21 09:25:49;;;;;;;0.38;0.38;;;-1.90;99.90;;;;;;4995605;28;20438;-65
2021/12/21 09:28:15;;;;;;;0.43;0.40;;;-2.00;99.90;;;;;;4996133;28;20101;-65
2021/12/21 09:30:40;;;;;;;0.30;0.30;;;-1.90;99.90;;;;;;4993187;28;20026;-66
2021/12/21 09:33:06;;;;;;;0.40;0.28;;;-1.90;99.90;;;;;;4994460;28;20054;-65
2021/12/21 09:35:32;;;;;;;0.20;0.20;;;-1.80;99.90;;;;;;4986872;28;20022;-66
2021/12/21 09:37:57;;;;;;;0.10;0.10;;;-1.80;99.90;;;;;;4994241;28;20023;-65
2021/12/21 09:40:30;;;;;;;0.30;0.28;;;-1.70;99.90;;;;;;4989176;28;20072;-66
2021/12/21 09:42:57;;;;;;;0.43;0.40;;;-1.70;99.90;;;;;;4996126;28;20117;-66
2021/12/21 09:45:23;;;;;;;0.20;0.20;;;-1.70;99.90;;;;;;4989945;28;20516;-66
2021/12/21 09:47:51;;;;;;;0.52;0.52;;;-1.70;99.90;;;;;;4995971;28;20054;-65
2021/12/21 09:50:20;;;;;;;0.60;0.52;;;-1.70;99.90;;;;;;4993721;28;20410;-65
2021/12/21 09:52:46;;;;;;;0.60;0.60;;;-1.80;99.90;;;;;;4997697;28;20032;-66
2021/12/21 09:55:14;;;;;;;0.38;0.22;;;-1.70;99.90;;;;;;4992249;28;20022;-66
2021/12/21 09:57:40;;;;;;;0.25;0.15;;;-1.70;99.90;;;;;;4995848;28;20031;-66
2021/12/21 10:00:12;;;;;;;0.10;0.10;;;-1.60;99.90;;;;;;4995288;28;20045;-66
2021/12/21 10:02:38;;;;;;;0.30;0.30;;;-1.60;99.90;;;;;;4995736;28;20033;-67
2021/12/21 10:05:13;;;;;;;0.30;0.30;;;-1.70;99.90;;;;;;4991100;28;20026;-67
2021/12/21 10:07:39;;;;;;;0.20;0.17;;;-1.60;99.90;;;;;;4995865;28;20050;-66
2021/12/21 10:10:08;;;;;;;0.20;0.20;;;-1.50;99.90;;;;;;4991289;28;20058;-67
2021/12/21 10:12:38;;;;;;;0.30;0.28;;;-1.50;99.90;;;;;;4993342;28;20097;-66
2021/12/21 10:15:17;;;;;;;0.20;0.20;;;-1.50;99.90;;;;;;4989843;28;20029;-67
2021/12/21 10:17:53;;;;;;;0.30;0.20;;;-1.40;99.90;;;;;;5001496;28;20487;-67
2021/12/21 10:20:37;;;;;;;0.20;0.20;;;-1.30;99.90;;;;;;5008744;28;20057;-67
2021/12/21 10:23:15;;;;;;;0.30;0.30;;;-1.40;99.90;;;;;;4996109;28;20069;-67
2021/12/21 10:25:45;;;;;;;0.28;0.20;;;-1.50;99.90;;;;;;4995264;28;20023;-67
2021/12/21 10:28:11;;;;;;;0.22;0.20;;;-1.50;99.90;;;;;;5001083;28;20030;-66
2021/12/21 10:30:50;;;;;;;0.20;0.20;;;-1.40;99.90;;;;;;4995591;28;20023;-68
2021/12/21 10:33:16;;;;;;;0.20;0.20;;;-1.30;99.90;;;;;;4994935;28;20081;-67
2021/12/21 10:35:41;;;;;;;0.22;0.22;;;-1.20;99.90;;;;;;4994945;28;20033;-67
2021/12/21 10:38:07;;;;;;;0.30;0.22;;;-1.10;99.90;;;;;;4993641;28;20030;-67
2021/12/21 10:40:33;;;;;;;0.20;0.20;;;-1.10;99.90;;;;;;4999268;28;20052;-68
2021/12/21 10:43:05;;;;;;;0.30;0.30;;;-1.20;99.90;;;;;;5008292;28;20358;-67
2021/12/21 10:45:37;;;;;;;0.10;0.10;;;-1.30;99.90;;;;;;4994807;28;20050;-67
2021/12/21 10:48:06;;;;;;;0.30;0.30;;;-1.30;99.90;;;;;;5004208;28;20073;-67
2021/12/21 10:50:34;;;;;;;0.28;0.28;;;-1.30;99.90;;;;;;4994922;28;20030;-67
2021/12/21 10:53:01;;;;;;;0.30;0.30;;;-1.30;99.90;;;;;;5001450;28;20042;-67
2021/12/21 10:55:30;;;;;;;0.20;0.20;;;-1.40;99.90;;;;;;4997761;28;20093;-68
2021/12/21 10:58:15;;;;;;;0.30;0.30;;;-1.30;99.90;;;;;;4999504;28;20034;-68
2021/12/21 11:01:03;;;;;;;0.32;0.20;;;-1.20;99.90;;;;;;4994195;28;20084;-68
2021/12/21 11:03:54;;;;;;;0.40;0.40;;;-1.20;99.90;;;;;;4998171;28;20153;-68
2021/12/21 11:06:26;;;;;;;0.40;0.20;;;-1.10;99.90;;;;;;5005420;28;20109;-68
2021/12/21 11:08:54;;;;;;;0.30;0.30;;;-1.20;99.90;;;;;;4995853;28;20422;-68
2021/12/21 11:11:32;;;;;;;0.17;0.17;;;-1.00;99.90;;;;;;4994022;28;20097;-68
2021/12/21 11:14:04;;;;;;;0.38;0.30;;;-1.00;99.90;;;;;;4999700;28;20041;-68
2021/12/21 11:16:40;;;;;;;0.10;0.10;;;-1.00;99.90;;;;;;4994607;28;20066;-68
2021/12/21 11:19:07;;;;;;;0.25;0.20;;;-1.00;99.90;;;;;;4994780;28;20065;-68
2021/12/21 11:21:33;;;;;;;0.50;0.40;;;-1.00;99.90;;;;;;4995731;28;20031;-68
2021/12/21 11:24:02;;;;;;;0.20;0.10;;;-1.10;99.90;;;;;;4995982;28;20066;-68
2021/12/21 11:26:30;;;;;;;0.10;0.10;;;-1.10;99.90;;;;;;4995010;28;20037;-68
2021/12/21 11:28:59;;;;;;;0.22;0.22;;;-1.00;99.90;;;;;;5007789;28;20101;-68
2021/12/21 11:31:26;;;;;;;0.10;0.10;;;-0.90;99.90;;;;;;4994369;28;20088;-68
2021/12/21 11:33:57;;;;;;;0.25;0.20;;;-0.70;99.90;;;;;;4994276;28;20030;-68
2021/12/21 11:39:07;;;;;;;0.20;0.20;;;-0.70;99.90;;;;;;4994919;28;20538;-69
2021/12/21 11:41:34;;;;;;;0.10;0.10;;;-0.60;99.90;;;;;;4993461;28;20026;-69
2021/12/21 11:44:08;;;;;;;0.10;0.10;;;-0.70;99.90;;;;;;4995015;28;20470;-69
2021/12/21 11:46:52;;;;;;;;;;;-0.70;99.90;;;;;;4994625;28;20031;-69
2021/12/21 11:49:31;;;;;;;0.10;0.10;;;-0.60;99.90;;;;;;5001843;28;19906;-69
2021/12/21 11:52:09;;;;;;;0.20;0.20;;;-0.70;99.90;;;;;;4993344;28;20081;-69
2021/12/21 11:54:56;;;;;;;0.10;0.10;;;-0.70;99.90;;;;;;4994579;28;20477;-69
2021/12/21 11:57:46;;;;;;;0.30;0.30;;;-0.90;99.90;;;;;;4989890;28;20525;-68
2021/12/21 12:00:22;;;;;;;0.10;0.10;;;-0.90;99.90;;;;;;4993436;28;20034;-69
2021/12/21 12:02:49;;;;;;;0.50;0.40;;;-1.00;99.90;;;;;;4992907;28;20038;-69
2021/12/21 12:05:18;;;;;;;0.73;0.52;;;-1.10;99.90;;;;;;4996965;28;20038;-69
2021/12/21 12:07:44;;;;;;;0.50;0.50;;;-1.10;99.90;;;;;;4992833;28;20034;-70
2021/12/21 12:10:14;;;;;;;0.70;0.70;;;-1.00;99.90;;;;;;4993513;28;20472;-69
2021/12/21 12:12:41;;;;;;;0.30;0.20;;;-1.10;99.90;;;;;;4993660;28;20031;-70
2021/12/21 12:15:08;;;;;;;0.40;0.40;;;-1.10;99.90;;;;;;4994341;28;20033;-69
2021/12/21 12:17:49;;;;;;;0.32;0.32;;;-1.10;99.90;;;;;;4993517;28;20030;-69
2021/12/21 12:20:16;;;;;;;0.57;0.50;;;-1.10;99.90;;;;;;4993285;28;20125;-70
2021/12/21 12:22:45;;;;;;;0.98;0.88;;;-1.10;99.90;;;;;;4993199;28;20062;-70
2021/12/21 12:25:20;;;;;;;1.00;0.90;;;-1.30;99.90;;;;;;5002172;28;20039;-69
2021/12/21 12:27:52;;;;;;;0.75;0.60;;;-1.40;99.90;;;;;;4993308;28;20525;-70
2021/12/21 12:30:26;;;;;;;0.52;0.52;;;-1.20;99.90;;;;;;4992086;28;20466;-69
2021/12/21 12:33:01;;;;;;;1.08;0.70;;;-1.10;99.90;;;;;;4994219;28;20026;-69
2021/12/21 12:35:33;;;;;;;0.75;0.75;;;-0.90;99.90;;;;;;4992744;28;20382;-70
2021/12/21 12:38:18;;;;;;;0.80;0.80;;;-0.80;99.90;;;;;;5004541;28;20394;-70
2021/12/21 12:40:56;;;;;;;0.93;0.65;;;-0.90;99.90;;;;;;4991677;28;20505;-69
2021/12/21 12:43:25;;;;;;;0.20;0.20;;;-1.00;99.90;;;;;;4992553;28;20034;-70
2021/12/21 12:46:01;;;;;;;0.63;0.50;;;-0.90;99.90;;;;;;4994566;28;20100;-70
2021/12/21 12:48:37;;;;;;;0.47;0.40;;;-0.80;99.90;;;;;;4992948;28;20030;-70
2021/12/21 12:51:05;;;;;;;0.40;0.30;;;-0.90;99.90;;;;;;4991890;28;20109;-70
2021/12/21 12:53:49;;;;;;;0.60;0.50;;;-0.80;99.90;;;;;;5000927;28;20033;-70
2021/12/21 12:56:18;;;;;;;0.75;0.75;;;-0.80;99.90;;;;;;4992067;28;20483;-70
2021/12/21 12:58:50;;;;;;;0.30;0.30;;;-1.00;99.90;;;;;;5007277;28;20065;-69
2021/12/21 13:01:24;;;;;;;0.60;0.50;;;-1.10;99.90;;;;;;4999956;28;20366;-69
2021/12/21 13:03:53;;;;;;;0.77;0.50;;;-1.20;99.90;;;;;;4994112;28;20069;-69
2021/12/21 13:06:22;;;;;;;0.70;0.60;;;-1.10;99.90;;;;;;5001833;28;20030;-70
2021/12/21 13:08:49;;;;;;;1.10;0.70;;;-1.00;99.90;;;;;;4996608;28;20045;-69
2021/12/21 13:11:24;;;;;;;1.20;0.80;;;-1.10;99.90;;;;;;4998764;28;20100;-69
2021/12/21 13:13:50;;;;;;;0.57;0.38;;;-1.00;99.90;;;;;;4991882;28;20026;-69
2021/12/21 13:16:18;;;;;;;0.28;0.28;;;-1.00;99.90;;;;;;4995226;28;20027;-69
2021/12/21 13:18:48;;;;;;;0.28;0.28;;;-1.00;99.90;;;;;;4993082;28;20521;-69
2021/12/21 13:21:27;;;;;;;0.77;0.60;;;-0.90;99.90;;;;;;4993858;28;20038;-69
2021/12/21 13:24:06;;;;;;;0.30;0.30;;;-0.90;99.90;;;;;;5003193;28;20038;-70
2021/12/21 13:26:48;;;;;;;0.30;0.30;;;-1.00;99.90;;;;;;4992299;28;20432;-68
2021/12/21 13:29:18;;;;;;;0.28;0.20;;;-1.00;99.90;;;;;;4992785;28;20026;-69
2021/12/21 13:31:47;;;;;;;0.10;0.10;;;-1.00;99.90;;;;;;4991374;28;20038;-69
2021/12/21 13:34:13;;;;;;;0.25;0.20;;;-0.90;99.90;;;;;;4991150;28;20488;-69
2021/12/21 13:36:46;;;;;;;0.52;0.40;;;-0.90;99.90;;;;;;4990310;28;20118;-68
2021/12/21 13:39:34;;;;;;;0.20;0.20;;;-1.00;99.90;;;;;;4981846;28;20034;-69
2021/12/21 13:42:01;;;;;;;0.63;0.50;;;-1.10;99.90;;;;;;4990245;28;20141;-69
2021/12/21 13:44:31;;;;;;;0.57;0.40;;;-1.00;99.90;;;;;;4988140;28;20029;-69
2021/12/21 13:47:04;;;;;;;0.20;0.20;;;-1.20;99.90;;;;;;4988601;28;20037;-69
2021/12/21 13:49:30;;;;;;;0.50;0.50;;;-1.10;99.90;;;;;;4991925;28;20029;-69
2021/12/21 13:52:00;;;;;;;0.50;0.50;;;-1.10;99.90;;;;;;4992606;28;20034;-69
2021/12/21 13:54:27;;;;;;;0.28;0.28;;;-1.10;99.90;;;;;;4995631;28;20038;-69